createdAt,value
2018-11-20T00:02:46.131Z,9.37
2018-11-20T00:05:21.108Z,8.40
2018-11-20T00:09:59.421Z,8.67
2018-11-20T00:12:37.382Z,9.10
2018-11-20T00:15:12.592Z,10.23
2018-11-20T00:17:55.553Z,10.73
2018-11-20T00:22:33.232Z,11.77
2018-11-20T00:25:09.045Z,11.17
2018-11-20T00:27:49.040Z,12.63
2018-11-20T00:30:22.862Z,12.03
2018-11-20T00:32:56.936Z,12.30
2018-11-20T00:35:29.980Z,12.67
2018-11-20T00:38:05.777Z,12.20
2018-11-20T00:40:39.823Z,12.23
2018-11-20T00:43:21.665Z,11.50
2018-11-20T00:45:55.617Z,11.00
2018-11-20T00:48:29.569Z,10.63
2018-11-20T00:51:03.756Z,9.47
2018-11-20T00:54:38.258Z,9.53
2018-11-20T00:58:11.007Z,9.30
2018-11-20T01:00:46.789Z,9.83
2018-11-20T01:03:20.721Z,9.47
2018-11-20T01:06:57.640Z,10.80
2018-11-20T01:09:32.607Z,11.43
2018-11-20T01:12:39.896Z,13.17
2018-11-20T01:15:16.772Z,11.67
2018-11-20T01:18:54.325Z,11.37
2018-11-20T01:23:34.638Z,10.90
2018-11-20T01:26:14.605Z,9.63
2018-11-20T01:30:50.894Z,10.20
2018-11-20T01:33:26.908Z,10.43
2018-11-20T01:38:03.200Z,11.13
2018-11-20T01:41:39.778Z,12.87
2018-11-20T01:45:17.395Z,11.80
2018-11-20T01:47:59.265Z,12.87
2018-11-20T01:50:33.193Z,13.33
2018-11-20T01:53:07.354Z,12.03
2018-11-20T01:55:43.371Z,13.30
2018-11-20T01:58:22.405Z,13.10
2018-11-20T02:00:56.501Z,12.80
2018-11-20T02:03:30.584Z,14.57
2018-11-20T02:06:04.932Z,15.20
2018-11-20T02:09:15.056Z,14.47
2018-11-20T02:12:05.173Z,14.93
2018-11-20T02:14:41.217Z,14.57
2018-11-20T02:17:50.966Z,13.90
2018-11-20T02:20:25.087Z,13.00
2018-11-20T02:22:58.988Z,13.53
2018-11-20T02:25:34.746Z,13.43
2018-11-20T02:29:14.393Z,13.17
2018-11-20T02:32:19.746Z,13.33
2018-11-20T02:34:52.793Z,13.50
2018-11-20T02:37:32.791Z,13.27
2018-11-20T02:40:10.641Z,12.90
2018-11-20T02:42:44.578Z,13.33
2018-11-20T02:45:18.746Z,14.00
2018-11-20T02:48:51.385Z,14.53
2018-11-20T02:52:23.390Z,15.03
2018-11-20T02:54:57.385Z,13.47
2018-11-20T02:58:03.391Z,13.83
2018-11-20T03:00:37.205Z,14.73
2018-11-20T03:05:14.099Z,15.27
2018-11-20T03:09:53.394Z,13.23
2018-11-20T03:12:27.273Z,11.47
2018-11-20T03:15:00.340Z,12.00
2018-11-20T03:19:36.990Z,10.77
2018-11-20T03:22:14.984Z,11.87
2018-11-20T03:24:48.992Z,13.63
2018-11-20T03:27:22.925Z,14.23
2018-11-20T03:32:16.791Z,13.53
2018-11-20T03:35:20.933Z,14.90
2018-11-20T03:37:54.860Z,14.90
2018-11-20T03:41:30.563Z,14.13
2018-11-20T03:44:12.345Z,15.43
2018-11-20T03:46:48.316Z,15.07
2018-11-20T03:49:22.303Z,15.60
2018-11-20T03:52:00.117Z,17.27
2018-11-20T03:54:51.177Z,16.47
2018-11-20T03:57:36.737Z,16.83
2018-11-20T04:00:13.394Z,14.53
2018-11-20T04:02:52.403Z,14.57
2018-11-20T04:05:40.664Z,13.50
2018-11-20T04:10:18.282Z,13.30
2018-11-20T04:13:50.003Z,14.20
2018-11-20T04:16:23.988Z,14.77
2018-11-20T04:19:03.841Z,14.70
2018-11-20T04:21:42.845Z,15.53
2018-11-20T04:24:16.863Z,16.00
2018-11-20T04:27:53.240Z,16.97
2018-11-20T04:32:41.524Z,17.83
2018-11-20T04:35:16.762Z,19.27
2018-11-20T04:37:51.492Z,20.07
2018-11-20T04:40:33.321Z,20.43
2018-11-20T04:44:05.000Z,20.80
2018-11-20T04:46:39.845Z,20.30
2018-11-20T04:50:11.817Z,20.77
2018-11-20T04:53:00.169Z,21.27
2018-11-20T04:55:48.328Z,20.57
2018-11-20T04:58:23.709Z,22.70
2018-11-20T05:03:01.200Z,21.87
2018-11-20T05:05:37.037Z,20.23
2018-11-20T05:08:11.341Z,20.93
2018-11-20T05:10:49.182Z,21.23
2018-11-20T05:13:24.091Z,20.93
2018-11-20T05:16:13.093Z,20.83
2018-11-20T05:18:49.984Z,23.03
2018-11-20T05:21:23.943Z,21.17
2018-11-20T05:24:00.888Z,21.90
2018-11-20T05:27:34.366Z,22.07
2018-11-20T05:30:07.487Z,22.40
2018-11-20T05:32:43.492Z,21.80
2018-11-20T05:35:17.663Z,20.67
2018-11-20T05:37:52.557Z,15.80
2018-11-20T05:41:24.234Z,22.80
2018-11-20T05:44:01.285Z,23.20
2018-11-20T05:48:38.726Z,23.53
2018-11-20T05:51:17.688Z,23.37
2018-11-20T05:53:53.644Z,22.27
2018-11-20T05:56:27.459Z,23.60
2018-11-20T05:59:01.518Z,22.77
2018-11-20T06:01:36.415Z,25.13
2018-11-20T06:04:26.710Z,26.33
2018-11-20T06:07:00.625Z,25.93
2018-11-20T06:10:10.778Z,30.97
2018-11-20T06:13:14.913Z,28.17
2018-11-20T06:15:54.733Z,28.63
2018-11-20T06:18:34.727Z,23.57
2018-11-20T06:21:16.675Z,22.67
2018-11-20T06:23:55.635Z,24.13
2018-11-20T06:26:47.717Z,26.33
2018-11-20T06:29:21.818Z,23.33
2018-11-20T06:31:55.805Z,24.20
2018-11-20T06:34:30.710Z,22.83
2018-11-20T06:37:22.929Z,19.13
2018-11-20T06:40:05.893Z,19.27
2018-11-20T06:42:39.882Z,19.43
2018-11-20T06:45:13.969Z,19.60
2018-11-20T06:49:51.333Z,20.03
2018-11-20T06:54:30.922Z,18.83
2018-11-20T06:57:04.839Z,15.83
2018-11-20T06:59:38.901Z,15.80
2018-11-20T07:02:18.712Z,14.53
2018-11-20T07:05:09.740Z,13.10
2018-11-20T07:07:45.685Z,10.67
2018-11-20T07:10:19.580Z,9.60
2018-11-20T07:13:00.496Z,8.63
2018-11-20T07:15:39.637Z,9.43
2018-11-20T07:19:14.042Z,8.80
2018-11-20T07:21:52.944Z,9.60
2018-11-20T07:24:31.088Z,8.73
2018-11-20T07:27:12.158Z,9.47
2018-11-20T07:30:17.465Z,9.43
2018-11-20T07:33:05.587Z,9.63
2018-11-20T07:35:47.697Z,9.60
2018-11-20T07:40:23.695Z,10.23
2018-11-20T07:43:03.573Z,10.53
2018-11-20T07:45:45.626Z,9.17
2018-11-20T07:48:19.636Z,9.27
2018-11-20T07:50:53.857Z,9.70
2018-11-20T07:53:27.924Z,9.43
2018-11-20T07:58:05.381Z,9.03
2018-11-20T08:00:42.296Z,10.17
2018-11-20T08:03:19.124Z,9.70
2018-11-20T08:05:58.171Z,9.53
2018-11-20T08:08:36.209Z,9.70
2018-11-20T08:11:10.382Z,10.67
2018-11-20T08:14:03.624Z,10.40
2018-11-20T08:16:44.790Z,9.43
2018-11-20T08:20:17.497Z,9.23
2018-11-20T08:23:09.811Z,10.03
2018-11-20T08:25:58.085Z,7.73
2018-11-20T08:30:37.725Z,8.90
2018-11-20T08:33:20.777Z,8.60
2018-11-20T08:35:54.992Z,8.37
2018-11-20T08:38:49.403Z,8.90
2018-11-20T08:43:28.199Z,10.40
2018-11-20T08:47:02.846Z,9.33
2018-11-20T08:51:39.547Z,11.17
2018-11-20T08:54:13.570Z,13.20
2018-11-20T08:56:50.016Z,14.40
2018-11-20T08:59:24.993Z,14.83
2018-11-20T09:01:59.158Z,14.00
2018-11-20T09:04:36.639Z,12.57
2018-11-20T09:08:17.365Z,11.77
2018-11-20T09:10:50.451Z,10.90
2018-11-20T09:15:27.122Z,12.30
2018-11-20T09:20:07.426Z,11.67
2018-11-20T09:22:46.491Z,11.27
2018-11-20T09:25:20.456Z,12.10
2018-11-20T09:28:56.488Z,12.07
2018-11-20T09:32:33.165Z,11.83
2018-11-20T09:37:17.274Z,13.30
2018-11-20T09:40:00.805Z,13.13
2018-11-20T09:42:35.933Z,11.23
2018-11-20T09:45:58.818Z,8.23
2018-11-20T09:49:31.311Z,8.80
2018-11-20T09:52:11.933Z,15.57
2018-11-20T09:56:49.129Z,16.83
2018-11-20T10:01:25.685Z,17.07
2018-11-20T10:03:58.831Z,16.13
2018-11-20T10:06:36.699Z,15.53
2018-11-20T10:10:13.520Z,15.47
2018-11-20T10:13:02.454Z,15.37
2018-11-20T10:15:36.386Z,15.53
2018-11-20T10:19:14.337Z,16.60
2018-11-20T10:25:00.788Z,19.43
2018-11-20T10:27:34.754Z,20.40
2018-11-20T10:31:06.652Z,21.73
2018-11-20T10:34:38.517Z,22.10
2018-11-20T10:37:17.489Z,23.87
2018-11-20T10:40:27.583Z,25.17
2018-11-20T10:43:01.668Z,23.90
2018-11-20T10:45:40.711Z,23.73
2018-11-20T10:48:14.789Z,25.50
2018-11-20T10:50:49.660Z,24.10
2018-11-20T10:53:27.597Z,25.37
2018-11-20T10:58:05.940Z,23.40
2018-11-20T11:00:40.924Z,24.17
2018-11-20T11:03:15.064Z,23.90
2018-11-20T11:05:49.167Z,24.47
2018-11-20T11:08:23.293Z,25.33
2018-11-20T11:10:56.408Z,26.97
2018-11-20T11:15:36.169Z,25.20
2018-11-20T11:18:19.275Z,25.73
2018-11-20T11:20:55.352Z,25.63
2018-11-20T11:23:41.342Z,26.30
2018-11-20T11:26:15.263Z,26.60
2018-11-20T11:28:54.101Z,26.87
2018-11-20T11:31:29.931Z,27.60
2018-11-20T11:34:10.780Z,26.20
2018-11-20T11:36:56.837Z,24.23
2018-11-20T11:39:34.225Z,25.57
2018-11-20T11:43:08.769Z,20.23
2018-11-20T11:45:48.816Z,18.33
2018-11-20T11:48:22.935Z,19.77
2018-11-20T11:51:57.454Z,21.33
2018-11-20T11:54:31.538Z,26.37
2018-11-20T11:57:06.172Z,25.80
2018-11-20T11:59:41.316Z,27.53
